createdAt,value
2022-11-25T00:00:44.147Z,3.54
2022-11-25T00:03:47.652Z,3.54
2022-11-25T00:06:49.837Z,3.49
2022-11-25T00:09:52.107Z,3.46
2022-11-25T00:12:54.375Z,3.41
2022-11-25T00:15:56.598Z,3.38
2022-11-25T00:18:59.148Z,3.35
2022-11-25T00:22:01.347Z,3.31
2022-11-25T00:25:04.950Z,3.29
2022-11-25T00:28:07.272Z,3.25
2022-11-25T00:31:12.756Z,3.23
2022-11-25T00:34:15.418Z,3.18
2022-11-25T00:37:17.704Z,3.12
2022-11-25T00:40:19.915Z,3.09
2022-11-25T00:43:40.760Z,3.02
2022-11-25T00:46:43.585Z,2.99
2022-11-25T00:49:55.723Z,2.97
2022-11-25T00:52:57.921Z,2.92
2022-11-25T00:56:15.467Z,2.86
2022-11-25T00:59:17.829Z,2.82
2022-11-25T01:02:20.227Z,2.72
2022-11-25T01:05:22.647Z,2.69
2022-11-25T01:08:25.268Z,2.50
2022-11-25T01:11:27.468Z,2.39
2022-11-25T01:14:29.699Z,2.36
2022-11-25T01:17:32.700Z,2.27
2022-11-25T01:20:36.439Z,2.19
2022-11-25T01:23:39.472Z,2.09
2022-11-25T01:26:42.692Z,2.04
2022-11-25T01:29:44.955Z,1.97
2022-11-25T01:32:47.046Z,1.88
2022-11-25T01:35:49.321Z,1.85
2022-11-25T01:38:55.145Z,1.79
2022-11-25T01:41:58.174Z,1.73
2022-11-25T01:45:19.146Z,1.69
2022-11-25T01:48:28.980Z,1.67
2022-11-25T01:51:43.443Z,1.60
2022-11-25T01:55:11.249Z,1.53
2022-11-25T01:58:18.737Z,1.46
2022-11-25T02:01:22.026Z,1.33
2022-11-25T02:04:29.095Z,1.23
2022-11-25T02:07:35.320Z,1.20
2022-11-25T02:10:38.031Z,1.14
2022-11-25T02:13:41.021Z,1.12
2022-11-25T02:16:43.366Z,1.08
2022-11-25T02:19:54.375Z,1.05
2022-11-25T02:23:25.881Z,1.05
2022-11-25T02:26:28.092Z,1.00
2022-11-25T02:29:30.565Z,0.95
2022-11-25T02:32:32.782Z,0.93
2022-11-25T02:36:01.959Z,0.88
2022-11-25T02:39:04.814Z,0.80
2022-11-25T02:42:07.588Z,0.71
2022-11-25T02:45:14.661Z,0.66
2022-11-25T02:48:17.260Z,0.64
2022-11-25T02:51:21.940Z,0.63
2022-11-25T02:54:24.177Z,0.62
2022-11-25T02:57:26.389Z,0.62
2022-11-25T03:00:28.681Z,0.65
2022-11-25T03:03:31.152Z,0.66
2022-11-25T03:06:33.714Z,0.66
2022-11-25T03:09:35.847Z,0.71
2022-11-25T03:12:38.153Z,0.78
2022-11-25T03:15:40.903Z,0.79
2022-11-25T03:18:43.257Z,0.71
2022-11-25T03:21:45.659Z,0.62
2022-11-25T03:24:47.943Z,0.54
2022-11-25T03:27:50.196Z,0.53
2022-11-25T03:30:52.516Z,0.50
2022-11-25T03:33:55.912Z,0.47
2022-11-25T03:36:58.222Z,0.51
2022-11-25T03:40:00.444Z,0.49
2022-11-25T03:43:02.803Z,0.53
2022-11-25T03:46:05.088Z,0.54
2022-11-25T03:49:07.867Z,0.56
2022-11-25T03:52:10.208Z,0.54
2022-11-25T03:55:13.289Z,0.53
2022-11-25T03:58:15.542Z,0.50
2022-11-25T04:01:17.844Z,0.44
2022-11-25T04:04:20.272Z,0.49
2022-11-25T04:07:22.511Z,0.51
2022-11-25T04:10:24.998Z,0.48
2022-11-25T04:13:27.831Z,0.40
2022-11-25T04:16:30.046Z,0.38
2022-11-25T04:19:32.380Z,0.38
2022-11-25T04:22:34.660Z,0.33
2022-11-25T04:25:37.681Z,0.30
2022-11-25T04:28:39.947Z,0.30
2022-11-25T04:31:42.181Z,0.27
2022-11-25T04:35:03.053Z,0.32
2022-11-25T04:38:05.582Z,0.37
2022-11-25T04:41:07.847Z,0.42
2022-11-25T04:44:10.684Z,0.36
2022-11-25T04:47:12.956Z,0.33
2022-11-25T04:50:18.927Z,0.36
2022-11-25T04:53:21.153Z,0.28
2022-11-25T04:56:23.520Z,0.20
2022-11-25T04:59:40.761Z,0.13
2022-11-25T05:02:43.045Z,0.00
2022-11-25T05:05:45.308Z,-0.14
2022-11-25T05:08:50.960Z,-0.21
2022-11-25T05:11:53.238Z,-0.28
2022-11-25T05:14:56.200Z,-0.25
2022-11-25T05:17:58.465Z,-0.20
2022-11-25T05:21:05.324Z,-0.17
2022-11-25T05:24:07.517Z,-0.19
2022-11-25T05:27:10.326Z,-0.19
2022-11-25T05:30:13.408Z,-0.13
2022-11-25T05:33:15.690Z,-0.17
2022-11-25T05:36:17.995Z,-0.22
2022-11-25T05:39:20.629Z,-0.30
2022-11-25T05:42:22.857Z,-0.31
2022-11-25T05:45:25.052Z,-0.37
2022-11-25T05:48:27.203Z,-0.40
2022-11-25T05:51:29.869Z,-0.43
2022-11-25T05:54:32.198Z,-0.42
2022-11-25T05:57:34.416Z,-0.43
2022-11-25T06:00:38.667Z,-0.40
2022-11-25T06:03:41.972Z,-0.39
2022-11-25T06:06:44.105Z,-0.38
2022-11-25T06:09:46.419Z,-0.39
2022-11-25T06:12:48.670Z,-0.34
2022-11-25T06:15:51.129Z,-0.38
2022-11-25T06:18:53.628Z,-0.40
2022-11-25T06:21:55.826Z,-0.47
2022-11-25T06:25:03.308Z,-0.53
2022-11-25T06:28:12.678Z,-0.52
2022-11-25T06:31:18.496Z,-0.47
2022-11-25T06:34:20.824Z,-0.52
2022-11-25T06:37:23.060Z,-0.47
2022-11-25T06:40:25.941Z,-0.48
2022-11-25T06:43:28.493Z,-0.44
2022-11-25T06:46:31.547Z,-0.33
2022-11-25T06:49:33.843Z,-0.39
2022-11-25T06:52:36.088Z,-0.32
2022-11-25T06:55:38.262Z,-0.22
2022-11-25T06:58:41.503Z,-0.29
2022-11-25T07:01:43.890Z,-0.38
2022-11-25T07:04:46.197Z,-0.35
2022-11-25T07:07:48.516Z,-0.36
2022-11-25T07:10:51.126Z,-0.31
2022-11-25T07:13:58.805Z,-0.28
2022-11-25T07:17:01.024Z,-0.29
2022-11-25T07:20:03.459Z,-0.18
2022-11-25T07:23:05.858Z,-0.09
2022-11-25T07:26:10.748Z,0.09
2022-11-25T07:29:54.261Z,0.19
2022-11-25T07:32:37.360Z,0.32
2022-11-25T07:35:39.543Z,0.40
2022-11-25T07:38:46.349Z,0.49
2022-11-25T07:41:53.763Z,0.52
2022-11-25T07:44:56.077Z,0.52
2022-11-25T07:47:58.231Z,0.64
2022-11-25T07:51:00.419Z,0.71
2022-11-25T07:54:04.580Z,0.86
2022-11-25T07:57:06.701Z,0.92
2022-11-25T08:00:09.683Z,0.93
2022-11-25T08:03:11.849Z,1.02
2022-11-25T08:06:20.581Z,1.04
2022-11-25T08:09:24.281Z,1.11
2022-11-25T08:12:26.583Z,1.26
2022-11-25T08:15:28.760Z,1.43
2022-11-25T08:18:30.994Z,1.43
2022-11-25T08:21:34.564Z,1.52
2022-11-25T08:24:36.910Z,1.59
2022-11-25T08:27:39.180Z,1.74
2022-11-25T08:30:41.414Z,1.89
2022-11-25T08:33:44.807Z,2.08
2022-11-25T08:36:48.859Z,2.26
2022-11-25T08:39:53.238Z,2.55
2022-11-25T08:42:55.573Z,2.79
2022-11-25T08:45:57.859Z,3.04
2022-11-25T08:49:00.975Z,3.39
2022-11-25T08:52:03.250Z,3.74
2022-11-25T08:55:06.023Z,4.07
2022-11-25T08:58:11.142Z,4.31
2022-11-25T09:01:14.064Z,4.51
2022-11-25T09:04:16.502Z,4.74
2022-11-25T09:07:18.975Z,4.87
2022-11-25T09:10:22.155Z,4.97
2022-11-25T09:13:25.132Z,5.13
2022-11-25T09:16:28.446Z,5.02
2022-11-25T09:19:30.797Z,4.89
2022-11-25T09:22:33.215Z,4.88
2022-11-25T09:25:36.189Z,4.90
2022-11-25T09:28:38.387Z,5.02
2022-11-25T09:31:41.320Z,5.18
2022-11-25T09:34:43.624Z,5.22
2022-11-25T09:37:45.879Z,5.16
2022-11-25T09:40:55.474Z,5.39
2022-11-25T09:44:34.260Z,5.43
2022-11-25T09:48:04.376Z,5.65
2022-11-25T09:51:25.182Z,5.79
2022-11-25T09:54:37.232Z,6.09
2022-11-25T09:57:48.543Z,6.42
2022-11-25T10:00:52.891Z,7.27
2022-11-25T10:03:58.983Z,8.47
2022-11-25T10:07:04.352Z,9.91
2022-11-25T10:10:15.193Z,11.31
2022-11-25T10:13:23.556Z,12.21
2022-11-25T10:16:38.168Z,12.65
2022-11-25T10:19:59.153Z,13.32
2022-11-25T10:23:03.469Z,13.07
2022-11-25T10:26:17.818Z,13.81
2022-11-25T10:29:29.256Z,13.76
2022-11-25T10:32:42.027Z,13.86
2022-11-25T10:35:57.490Z,13.81
2022-11-25T10:38:59.922Z,13.72
2022-11-25T10:42:13.564Z,13.36
2022-11-25T10:45:15.877Z,13.14
2022-11-25T10:48:44.652Z,12.08
2022-11-25T10:51:49.724Z,11.30
2022-11-25T10:55:14.643Z,11.58
2022-11-25T10:58:31.094Z,11.68
2022-11-25T11:01:35.044Z,11.47
2022-11-25T11:04:54.158Z,11.30
2022-11-25T11:08:18.506Z,10.83
2022-11-25T11:11:23.537Z,10.87
2022-11-25T11:14:30.112Z,10.82
2022-11-25T11:17:36.837Z,10.76
2022-11-25T11:20:49.384Z,10.94
2022-11-25T11:23:54.829Z,11.11
2022-11-25T11:27:19.544Z,11.07
2022-11-25T11:30:24.881Z,11.08
2022-11-25T11:33:58.321Z,11.07
2022-11-25T11:37:44.433Z,11.04
2022-11-25T11:40:52.622Z,11.26
2022-11-25T11:44:34.253Z,11.26
2022-11-25T11:48:04.557Z,11.30
2022-11-25T11:51:28.935Z,11.26
2022-11-25T11:54:37.224Z,11.08
2022-11-25T11:57:58.996Z,11.18
2022-11-25T12:01:24.553Z,11.30
2022-11-25T12:05:25.549Z,11.33
2022-11-25T12:08:52.993Z,11.29
2022-11-25T12:12:02.690Z,11.69
2022-11-25T12:15:16.168Z,11.60
2022-11-25T12:18:39.681Z,11.73
2022-11-25T12:22:07.446Z,11.44
2022-11-25T12:25:22.881Z,11.43
2022-11-25T12:28:34.025Z,11.56
2022-11-25T12:31:45.691Z,11.58
2022-11-25T12:35:11.717Z,11.52
2022-11-25T12:38:29.353Z,11.40
2022-11-25T12:41:47.422Z,11.56
2022-11-25T12:44:49.499Z,11.43
2022-11-25T12:47:53.525Z,11.52
2022-11-25T12:51:07.477Z,11.50
2022-11-25T12:54:47.947Z,11.46
2022-11-25T12:58:08.838Z,11.36
2022-11-25T13:01:57.625Z,11.26
2022-11-25T13:09:35.571Z,11.30
2022-11-25T13:10:55.633Z,11.25
2022-11-25T13:12:52.979Z,11.20
2022-11-25T13:15:59.129Z,11.22
2022-11-25T13:19:01.775Z,11.18
2022-11-25T13:22:27.409Z,11.10
2022-11-25T13:25:32.438Z,11.09
2022-11-25T13:28:38.516Z,10.97
2022-11-25T13:32:01.905Z,10.83
2022-11-25T13:35:22.193Z,10.92
2022-11-25T13:38:30.423Z,10.93
2022-11-25T13:41:42.047Z,10.86
2022-11-25T13:44:58.945Z,10.72
2022-11-25T13:48:18.153Z,10.83
2022-11-25T13:51:24.864Z,10.74
2022-11-25T13:54:40.543Z,10.68
2022-11-25T13:57:46.737Z,10.52
2022-11-25T14:00:57.647Z,10.59
2022-11-25T14:04:06.511Z,10.58
2022-11-25T14:07:44.970Z,10.44
2022-11-25T14:10:49.806Z,10.34
2022-11-25T14:14:04.342Z,10.25
2022-11-25T14:17:31.384Z,10.13
2022-11-25T14:20:49.534Z,9.98
2022-11-25T14:24:13.812Z,9.89
2022-11-25T14:27:19.602Z,9.77
2022-11-25T14:30:22.000Z,9.65
2022-11-25T14:33:31.730Z,9.56
2022-11-25T14:36:41.204Z,9.42
2022-11-25T14:40:10.671Z,9.27
2022-11-25T14:43:26.711Z,9.14
2022-11-25T14:46:29.313Z,9.04
2022-11-25T14:50:05.686Z,8.92
2022-11-25T14:53:15.189Z,8.84
2022-11-25T14:56:26.190Z,8.68
2022-11-25T14:59:28.817Z,8.61
2022-11-25T15:02:36.991Z,8.49
2022-11-25T15:05:41.243Z,8.36
2022-11-25T15:08:46.225Z,8.23
2022-11-25T15:12:02.108Z,8.13
2022-11-25T15:15:04.774Z,8.03
2022-11-25T15:18:10.542Z,7.91
2022-11-25T15:21:16.226Z,7.86
2022-11-25T15:24:28.545Z,7.76
2022-11-25T15:27:33.163Z,7.81
2022-11-25T15:30:37.972Z,7.73
2022-11-25T15:33:41.514Z,7.69
2022-11-25T15:36:43.807Z,7.64
2022-11-25T15:39:47.057Z,7.58
2022-11-25T15:42:49.567Z,7.50
2022-11-25T15:45:57.741Z,7.51
2022-11-25T15:49:04.718Z,7.55
2022-11-25T15:52:15.593Z,7.57
2022-11-25T15:55:31.215Z,7.53
2022-11-25T15:58:33.755Z,7.68
2022-11-25T16:01:36.268Z,7.55
2022-11-25T16:04:38.451Z,7.39
2022-11-25T16:07:50.166Z,7.34
2022-11-25T16:11:10.583Z,7.11
2022-11-25T16:14:23.542Z,7.09
2022-11-25T16:17:25.823Z,6.98
2022-11-25T16:20:28.247Z,7.01
2022-11-25T16:23:35.570Z,6.99
2022-11-25T16:27:07.951Z,7.03
2022-11-25T16:30:21.207Z,6.90
2022-11-25T16:33:24.787Z,6.90
2022-11-25T16:36:27.063Z,6.77
2022-11-25T16:39:29.590Z,6.46
2022-11-25T16:42:32.672Z,6.34
2022-11-25T16:45:35.238Z,6.21
2022-11-25T16:48:38.011Z,6.07
2022-11-25T16:51:40.439Z,5.89
2022-11-25T16:54:42.850Z,5.69
2022-11-25T16:57:45.489Z,5.56
2022-11-25T17:00:57.249Z,5.47
2022-11-25T17:03:59.839Z,5.36
2022-11-25T17:10:28.936Z,5.16
2022-11-25T17:13:32.606Z,5.04
2022-11-25T17:16:36.081Z,4.95
2022-11-25T17:19:39.419Z,4.87
2022-11-25T17:22:42.105Z,4.80
2022-11-25T17:25:49.274Z,4.76
2022-11-25T17:28:58.011Z,4.71
2022-11-25T17:32:01.095Z,4.70
2022-11-25T17:35:03.800Z,4.67
2022-11-25T17:38:18.891Z,4.65
2022-11-25T17:41:24.398Z,4.63
2022-11-25T17:44:28.846Z,4.63
2022-11-25T17:47:31.607Z,4.64
2022-11-25T17:50:36.749Z,4.72
2022-11-25T17:53:40.305Z,4.73
2022-11-25T17:56:52.074Z,4.69
2022-11-25T17:59:54.963Z,4.66
2022-11-25T18:02:57.708Z,4.59
2022-11-25T18:06:00.151Z,4.53
2022-11-25T18:09:02.320Z,4.47
2022-11-25T18:12:12.931Z,4.40
2022-11-25T18:15:25.771Z,4.37
2022-11-25T18:18:30.750Z,4.33
2022-11-25T18:21:33.709Z,4.29
2022-11-25T18:24:37.547Z,4.25
2022-11-25T18:27:40.488Z,4.23
2022-11-25T18:30:43.611Z,4.20
2022-11-25T18:33:46.396Z,4.16
2022-11-25T18:36:50.549Z,4.13
2022-11-25T18:39:53.451Z,4.08
2022-11-25T18:42:58.954Z,4.07
2022-11-25T18:46:01.850Z,4.05
2022-11-25T18:49:13.066Z,4.04
2022-11-25T18:52:15.710Z,4.06
2022-11-25T18:55:22.342Z,4.04
2022-11-25T18:58:30.101Z,4.01
2022-11-25T19:01:33.160Z,3.99
2022-11-25T19:04:36.523Z,4.01
2022-11-25T19:07:39.513Z,4.01
2022-11-25T19:10:45.180Z,4.04
2022-11-25T19:13:51.225Z,4.03
2022-11-25T19:16:54.719Z,4.05
2022-11-25T19:19:57.541Z,4.02
2022-11-25T19:23:12.410Z,3.99
2022-11-25T19:26:35.766Z,4.00
2022-11-25T19:29:42.235Z,4.02
2022-11-25T19:32:49.175Z,4.03
2022-11-25T19:35:52.215Z,4.05
2022-11-25T19:38:55.598Z,4.04
2022-11-25T19:41:58.278Z,4.03
2022-11-25T19:45:00.964Z,4.02
2022-11-25T19:48:08.220Z,3.99
2022-11-25T19:51:11.466Z,3.93
2022-11-25T19:54:20.870Z,3.92
2022-11-25T19:57:25.053Z,3.93
2022-11-25T20:00:27.872Z,3.91
2022-11-25T20:03:33.320Z,3.89
2022-11-25T20:06:36.065Z,3.82
2022-11-25T20:09:39.564Z,3.81
2022-11-25T20:12:43.070Z,3.82
2022-11-25T20:15:49.743Z,3.77
2022-11-25T20:18:56.666Z,3.76
2022-11-25T20:21:59.633Z,3.73
2022-11-25T20:25:05.744Z,3.72
2022-11-25T20:28:30.219Z,3.68
2022-11-25T20:31:32.994Z,3.67
2022-11-25T20:34:41.724Z,3.66
2022-11-25T20:37:53.906Z,3.61
2022-11-25T20:40:59.633Z,3.64
2022-11-25T20:44:07.850Z,3.60
2022-11-25T20:47:21.021Z,3.55
2022-11-25T20:50:23.742Z,3.57
2022-11-25T20:53:28.203Z,3.60
2022-11-25T20:56:31.145Z,3.60
2022-11-25T20:59:34.449Z,3.62
2022-11-25T21:02:37.162Z,3.59
2022-11-25T21:05:39.832Z,3.57
2022-11-25T21:08:48.842Z,3.54
2022-11-25T21:11:51.725Z,3.48
2022-11-25T21:14:54.495Z,3.44
2022-11-25T21:17:58.471Z,3.42
2022-11-25T21:21:01.989Z,3.40
2022-11-25T21:24:33.808Z,3.39
2022-11-25T21:27:36.210Z,3.37
2022-11-25T21:30:39.320Z,3.33
2022-11-25T21:33:41.552Z,3.25
2022-11-25T21:36:45.850Z,3.23
2022-11-25T21:39:48.169Z,3.18
2022-11-25T21:42:50.653Z,3.14
2022-11-25T21:46:00.460Z,3.12
2022-11-25T21:49:10.917Z,3.12
2022-11-25T21:52:13.700Z,3.09
2022-11-25T21:55:17.050Z,3.09
2022-11-25T21:58:24.963Z,3.05
2022-11-25T22:01:27.639Z,2.99
2022-11-25T22:04:30.058Z,2.94
2022-11-25T22:07:32.316Z,2.89
2022-11-25T22:10:35.825Z,2.83
2022-11-25T22:13:38.706Z,2.76
2022-11-25T22:16:41.299Z,2.71
2022-11-25T22:19:44.397Z,2.65
2022-11-25T22:22:46.620Z,2.60
2022-11-25T22:25:50.045Z,2.56
2022-11-25T22:28:53.295Z,2.51
2022-11-25T22:31:55.683Z,2.48
2022-11-25T22:34:58.050Z,2.47
2022-11-25T22:38:00.722Z,2.48
2022-11-25T22:41:04.520Z,2.53
2022-11-25T22:44:08.977Z,2.47
2022-11-25T22:47:27.517Z,2.44
2022-11-25T22:50:32.403Z,2.36
2022-11-25T22:53:34.669Z,2.41
2022-11-25T22:56:36.840Z,2.39
2022-11-25T22:59:39.477Z,2.41
2022-11-25T23:02:41.998Z,2.38
2022-11-25T23:05:44.819Z,2.37
2022-11-25T23:08:47.173Z,2.36
2022-11-25T23:11:49.388Z,2.31
2022-11-25T23:14:51.621Z,2.31
2022-11-25T23:17:56.136Z,2.28
2022-11-25T23:20:58.369Z,2.27
2022-11-25T23:24:00.698Z,2.27
2022-11-25T23:30:23.587Z,2.26
2022-11-25T23:33:29.142Z,2.28
2022-11-25T23:36:45.420Z,2.26
2022-11-25T23:39:53.611Z,2.28
2022-11-25T23:42:56.666Z,2.26
2022-11-25T23:45:59.025Z,2.22
2022-11-25T23:49:03.630Z,2.16
2022-11-25T23:52:08.775Z,2.12
2022-11-25T23:55:15.667Z,2.02
2022-11-25T23:58:20.338Z,1.98
